Time;durP1;ratioP1;P1;durP2;ratioP2;P2;SDS_P1;SDS_P2;PMS_P1;PMS_P2;Temp;Humidity;BMP_temperature;BMP_pressure;BME280_temperature;BME280_humidity;BME280_pressure;Samples;Min_cycle;Max_cycle;Signal;HPM_P1;HPM_P2
2021/12/29 00:01:05;;;;;;;59.38;29.37;;;;;;;-3.19;68.35;93791.24;1709552;83;21451;-49
2021/12/29 00:03:31;;;;;;;62.98;31.23;;;;;;;-3.18;68.14;93792.78;1715448;82;21155;-48
2021/12/29 00:05:58;;;;;;;58.33;29.90;;;;;;;-3.23;68.14;93785.07;1713328;82;20971;-49
2021/12/29 00:08:26;;;;;;;48.28;28.35;;;;;;;-3.25;68.37;93796.03;1716874;81;21080;-50
2021/12/29 00:10:58;;;;;;;46.15;25.50;;;;;;;-3.22;68.49;93793.33;1716259;81;20986;-49
2021/12/29 00:13:28;;;;;;;49.88;27.58;;;;;;;-3.13;68.36;93788.91;1698673;83;21118;-49
2021/12/29 00:15:59;;;;;;;38.83;23.47;;;;;;;-3.13;68.10;93792.39;1718229;82;21149;-49
2021/12/29 00:18:35;;;;;;;44.23;24.15;;;;;;;-3.10;68.18;93788.92;1710500;82;20940;-50
2021/12/29 00:21:03;;;;;;;35.68;21.15;;;;;;;-3.10;67.89;93783.55;1694021;83;21054;-50
2021/12/29 00:23:30;;;;;;;38.67;20.77;;;;;;;-3.07;67.73;93794.13;1707194;83;21243;-49
2021/12/29 00:25:57;;;;;;;42.67;23.12;;;;;;;-3.10;67.33;93802.94;1718574;82;20994;-50
2021/12/29 00:28:24;;;;;;;44.88;25.48;;;;;;;-3.18;67.43;93804.09;1679389;82;22081;-49
2021/12/29 00:30:51;;;;;;;44.75;23.22;;;;;;;-3.22;67.61;93805.43;1688074;83;20993;-49
2021/12/29 00:33:24;;;;;;;41.20;22.22;;;;;;;-3.24;67.64;93799.67;1684289;82;26602;-49
2021/12/29 00:36:11;;;;;;;36.73;22.32;;;;;;;-3.22;67.44;93800.05;1713913;82;21064;-49
2021/12/29 00:38:49;;;;;;;35.90;20.77;;;;;;;-3.34;67.22;93798.31;1709275;82;20943;-49
2021/12/29 00:41:35;;;;;;;56.42;26.62;;;;;;;-3.46;67.17;93796.77;1712278;82;21254;-49
2021/12/29 00:44:17;;;;;;;60.55;30.45;;;;;;;-3.61;67.33;93799.04;1674394;82;20984;-49
2021/12/29 00:46:57;;;;;;;57.20;30.45;;;;;;;-3.62;67.47;93792.13;1716428;82;20954;-50
2021/12/29 00:49:32;;;;;;;57.88;30.90;;;;;;;-3.69;67.17;93785.41;1715172;82;21431;-48
2021/12/29 00:51:53;;;;;;;56.37;28.73;;;;;;;-3.81;67.26;93784.41;1706703;82;21125;-49
2021/12/29 00:54:20;;;;;;;55.23;29.12;;;;;;;-3.85;67.51;93791.70;1667054;83;21515;-49
2021/12/29 00:56:47;;;;;;;51.98;29.02;;;;;;;-3.82;67.41;93791.72;1707863;82;20951;-49
2021/12/29 00:59:14;;;;;;;53.13;28.83;;;;;;;-3.79;67.55;93795.55;1710559;82;20969;-49
2021/12/29 01:01:44;;;;;;;59.00;29.48;;;;;;;-3.77;67.27;93785.19;1694458;83;20999;-49
2021/12/29 01:04:11;;;;;;;57.85;30.57;;;;;;;-3.75;67.56;93788.25;1692307;83;21074;-49
2021/12/29 01:06:38;;;;;;;55.20;29.52;;;;;;;-3.64;67.52;93791.19;1693595;83;21148;-50
2021/12/29 01:09:04;;;;;;;62.23;32.03;;;;;;;-3.58;67.27;93793.68;1714805;82;21054;-50
2021/12/29 01:11:31;;;;;;;61.18;31.17;;;;;;;-3.57;66.97;93782.34;1714300;82;21067;-50
2021/12/29 01:14:00;;;;;;;57.25;31.20;;;;;;;-3.59;67.11;93783.30;1718489;82;21002;-49
2021/12/29 01:19:19;;;;;;;61.60;32.00;;;;;;;-3.66;66.84;93774.65;1717515;82;21185;-49
2021/12/29 01:21:51;;;;;;;66.22;31.30;;;;;;;-3.68;66.91;93770.83;1705048;82;20947;-48
2021/12/29 01:24:18;;;;;;;116.20;50.58;;;;;;;-3.76;67.04;93766.02;1711849;82;20998;-50
2021/12/29 01:26:45;;;;;;;89.13;39.73;;;;;;;-3.78;67.34;93768.88;1711067;82;21458;-49
2021/12/29 01:29:13;;;;;;;95.00;40.15;;;;;;;-3.80;67.03;93771.17;1711669;82;21010;-49
2021/12/29 01:31:43;;;;;;;133.60;58.70;;;;;;;-3.99;66.94;93767.48;1711088;82;20952;-49
2021/12/29 01:34:10;;;;;;;150.78;65.55;;;;;;;-4.17;67.34;93766.66;1717243;82;21450;-49
2021/12/29 01:36:40;;;;;;;213.62;91.30;;;;;;;-4.20;67.72;93770.09;1719542;82;20983;-49
2021/12/29 01:39:14;;;;;;;165.95;72.25;;;;;;;-4.18;68.01;93769.14;1715040;82;21423;-49
2021/12/29 01:41:41;;;;;;;120.62;54.73;;;;;;;-4.04;68.29;93757.87;1712553;83;21550;-50
2021/12/29 01:44:09;;;;;;;118.08;52.30;;;;;;;-3.89;68.43;93745.27;1712621;82;21127;-50
2021/12/29 01:46:36;;;;;;;101.15;46.42;;;;;;;-3.75;67.90;93747.95;1714689;82;21577;-49
2021/12/29 01:49:03;;;;;;;108.32;50.12;;;;;;;-3.71;67.58;93754.12;1718068;82;21007;-49
2021/12/29 01:51:31;;;;;;;95.50;42.20;;;;;;;-3.71;67.39;93754.12;1719360;82;21042;-49
2021/12/29 01:54:15;;;;;;;89.42;41.58;;;;;;;-3.68;67.30;93745.30;1712358;82;20960;-49
2021/12/29 01:56:31;;;;;;;89.22;41.08;;;;;;;-3.63;67.25;93736.86;1708666;82;21888;-50
2021/12/29 01:58:59;;;;;;;96.30;41.92;;;;;;;-3.61;67.12;93737.23;1709030;82;20950;-50
2021/12/29 02:01:27;;;;;;;100.42;42.90;;;;;;;-3.60;66.73;93736.88;1707357;82;20960;-49
2021/12/29 02:03:55;;;;;;;91.50;40.40;;;;;;;-3.65;66.43;93739.16;1709005;82;21002;-49
2021/12/29 02:06:24;;;;;;;79.87;39.20;;;;;;;-3.69;66.50;93731.67;1721629;82;20979;-49
2021/12/29 02:08:53;;;;;;;80.05;38.78;;;;;;;-3.78;66.21;93724.55;1709991;82;21191;-48
2021/12/29 02:11:29;;;;;;;88.00;41.00;;;;;;;-3.91;66.45;93723.40;1703135;83;21011;-49
2021/12/29 02:13:52;;;;;;;87.60;41.58;;;;;;;-4.00;66.72;93713.58;1716939;82;21451;-49
2021/12/29 02:16:21;;;;;;;91.35;41.85;;;;;;;-3.99;67.06;93722.61;1711520;82;21042;-49
2021/12/29 02:19:02;;;;;;;87.20;43.87;;;;;;;-3.96;67.04;93727.77;1703766;82;21007;-49
2021/12/29 02:21:30;;;;;;;85.75;40.55;;;;;;;-3.95;67.06;93730.66;1714155;82;21148;-49
2021/12/29 02:26:29;;;;;;;89.87;42.43;;;;;;;-4.09;67.09;93728.71;1708587;83;21153;-49
2021/12/29 02:28:56;;;;;;;95.92;42.35;;;;;;;-4.14;67.20;93717.56;1710368;83;21660;-49
2021/12/29 02:31:24;;;;;;;90.47;40.75;;;;;;;-4.19;67.34;93724.09;1714255;82;21497;-49
2021/12/29 02:33:52;;;;;;;91.30;42.95;;;;;;;-4.19;67.48;93717.95;1692050;83;21973;-49
2021/12/29 02:36:21;;;;;;;97.95;45.65;;;;;;;-4.17;67.36;93713.75;1708167;83;20951;-50
2021/12/29 02:38:52;;;;;;;98.50;45.45;;;;;;;-4.12;67.29;93711.24;1701896;83;21558;-49
2021/12/29 02:41:17;;;;;;;95.97;43.80;;;;;;;-4.09;67.18;93711.26;1715932;82;21414;-49
2021/12/29 02:43:44;;;;;;;96.17;40.92;;;;;;;-4.06;67.07;93706.47;1699210;83;21094;-49
2021/12/29 02:46:14;;;;;;;96.02;42.62;;;;;;;-4.10;66.95;93708.94;1714224;83;21132;-50
2021/12/29 02:48:55;;;;;;;90.38;40.45;;;;;;;-4.17;67.16;93701.66;1711028;83;21034;-50
2021/12/29 02:51:20;;;;;;;89.80;44.50;;;;;;;-4.22;67.21;93703.36;1700132;83;21038;-49
2021/12/29 02:53:46;;;;;;;83.42;41.35;;;;;;;-4.21;67.50;93696.09;1717957;82;20991;-51
2021/12/29 02:56:14;;;;;;;97.25;41.63;;;;;;;-4.14;67.49;93699.56;1717295;82;21624;-49
2021/12/29 02:58:40;;;;;;;85.42;40.67;;;;;;;-4.02;67.54;93694.41;1720910;83;21105;-49
2021/12/29 03:01:13;;;;;;;80.03;39.10;;;;;;;-3.93;67.27;93693.44;1700518;82;20998;-50
2021/12/29 03:03:39;;;;;;;95.65;41.33;;;;;;;-3.87;67.09;93697.31;1713275;82;21141;-49
2021/12/29 03:06:07;;;;;;;91.42;41.80;;;;;;;-3.84;66.94;93693.85;1716475;83;21121;-48
2021/12/29 03:08:37;;;;;;;94.05;40.83;;;;;;;-3.82;66.78;93686.18;1710372;82;21018;-49
2021/12/29 03:11:04;;;;;;;78.28;38.55;;;;;;;-3.85;66.65;93693.07;1713933;82;21148;-50
2021/12/29 03:13:34;;;;;;;76.97;36.95;;;;;;;-3.92;66.72;93686.92;1712241;83;21003;-50
2021/12/29 03:16:06;;;;;;;72.97;35.23;;;;;;;-4.04;66.66;93689.40;1714851;82;21617;-50
2021/12/29 03:18:34;;;;;;;73.62;37.15;;;;;;;-4.18;66.99;93693.42;1710396;83;21478;-49
2021/12/29 03:21:02;;;;;;;69.03;34.20;;;;;;;-4.26;67.33;93691.09;1711514;82;21485;-50
2021/12/29 03:23:30;;;;;;;79.55;40.70;;;;;;;-4.27;67.42;93684.94;1713305;82;21127;-49
2021/12/29 03:25:57;;;;;;;79.67;38.20;;;;;;;-4.28;67.66;93682.06;1707755;82;20935;-50
2021/12/29 03:28:24;;;;;;;86.57;39.65;;;;;;;-4.24;67.57;93695.50;1709791;83;21521;-50
2021/12/29 03:30:53;;;;;;;83.15;38.80;;;;;;;-4.24;67.70;93686.87;1710725;83;21046;-50
2021/12/29 03:33:21;;;;;;;79.30;38.80;;;;;;;-4.21;67.69;93681.32;1725976;82;21018;-50
2021/12/29 03:35:52;;;;;;;77.55;39.45;;;;;;;-4.18;67.69;93680.55;1726960;82;21970;-48
2021/12/29 03:38:23;;;;;;;100.33;49.48;;;;;;;-4.19;67.60;93684.39;1714058;82;21594;-50
2021/12/29 03:40:52;;;;;;;91.53;42.62;;;;;;;-4.24;67.70;93686.87;1712034;83;21053;-49
2021/12/29 03:43:19;;;;;;;105.05;48.48;;;;;;;-4.30;67.88;93693.76;1715861;83;21038;-49
2021/12/29 03:45:47;;;;;;;88.72;39.85;;;;;;;-4.27;68.02;93697.61;1710742;82;20999;-49
2021/12/29 03:48:17;;;;;;;95.55;43.20;;;;;;;-4.33;67.63;93688.38;1713276;83;21148;-49
2021/12/29 03:50:45;;;;;;;98.65;43.75;;;;;;;-4.48;67.86;93690.81;1700511;82;21118;-49
2021/12/29 03:53:14;;;;;;;85.38;42.62;;;;;;;-4.54;68.24;93690.98;1712376;82;21507;-48
2021/12/29 03:55:42;;;;;;;93.78;43.80;;;;;;;-4.54;68.14;93672.99;1714894;82;21050;-49
2021/12/29 03:58:09;;;;;;;80.77;39.18;;;;;;;-4.56;68.22;93679.31;1712642;82;20983;-49
2021/12/29 04:00:36;;;;;;;94.30;43.48;;;;;;;-4.50;68.23;93681.03;1715106;83;21141;-49
2021/12/29 04:03:05;;;;;;;78.20;39.05;;;;;;;-4.52;68.12;93675.28;1711741;83;21554;-49
2021/12/29 04:05:33;;;;;;;84.05;40.23;;;;;;;-4.49;68.07;93671.84;1712775;82;20963;-49
2021/12/29 04:08:01;;;;;;;70.22;36.25;;;;;;;-4.55;68.00;93675.48;1716253;82;21081;-49
2021/12/29 04:10:30;;;;;;;81.87;38.28;;;;;;;-4.58;67.86;93682.17;1710253;82;21018;-50
2021/12/29 04:12:58;;;;;;;87.75;41.28;;;;;;;-4.71;67.84;93678.27;1714814;82;21160;-52
2021/12/29 04:15:25;;;;;;;83.80;38.85;;;;;;;-4.81;68.25;93684.38;1711518;82;21518;-50
2021/12/29 04:17:58;;;;;;;95.67;45.38;;;;;;;-4.79;68.52;93685.52;1710615;83;21541;-49
2021/12/29 04:23:14;;;;;;;129.93;62.85;;;;;;;-4.62;68.39;93689.44;1716272;82;21014;-51
2021/12/29 04:25:50;;;;;;;110.45;49.93;;;;;;;-4.56;68.19;93690.60;1711190;82;21032;-50
2021/12/29 04:28:20;;;;;;;95.15;46.30;;;;;;;-4.48;68.25;93686.78;1713599;83;21454;-49
2021/12/29 04:30:47;;;;;;;103.12;50.63;;;;;;;-4.32;67.89;93681.86;1715271;83;21054;-51
2021/12/29 04:33:16;;;;;;;110.72;58.75;;;;;;;-4.29;67.39;93685.91;1687048;83;21122;-50
2021/12/29 04:35:45;;;;;;;95.07;44.48;;;;;;;-4.29;67.31;93691.27;1696925;83;21525;-49
2021/12/29 04:38:12;;;;;;;105.03;49.00;;;;;;;-4.24;67.41;93684.77;1710723;82;21096;-49
2021/12/29 04:40:40;;;;;;;101.90;46.83;;;;;;;-4.21;67.21;93681.32;1714027;82;21002;-49
2021/12/29 04:43:06;;;;;;;94.80;47.98;;;;;;;-4.23;67.19;93683.03;1712089;82;21483;-49
2021/12/29 04:45:35;;;;;;;140.20;63.17;;;;;;;-4.21;66.87;93675.36;1692908;83;21080;-49
2021/12/29 04:48:10;;;;;;;124.95;59.15;;;;;;;-4.18;66.88;93673.84;1715280;82;21435;-50
2021/12/29 04:50:37;;;;;;;126.18;58.83;;;;;;;-4.20;66.43;93675.55;1709299;83;21181;-49
2021/12/29 04:53:01;;;;;;;101.02;47.03;;;;;;;-4.23;66.50;93674.98;1715796;82;21009;-49
2021/12/29 04:55:31;;;;;;;66.02;35.68;;;;;;;-4.26;66.08;93684.39;1712908;83;21102;-49
2021/12/29 04:57:59;;;;;;;75.72;40.05;;;;;;;-4.45;65.79;93679.34;1711495;82;21622;-50
2021/12/29 05:00:28;;;;;;;102.95;52.23;;;;;;;-4.77;66.04;93678.45;1713144;83;21046;-53
2021/12/29 05:02:59;;;;;;;137.35;66.72;;;;;;;-4.99;66.77;93684.86;1713192;83;21140;-48
2021/12/29 05:10:47;;;;;;;93.97;46.50;;;;;;;-4.57;67.82;93675.06;1699262;83;21538;-48
2021/12/29 05:13:15;;;;;;;73.65;41.23;;;;;;;-4.38;67.17;93673.98;1698092;82;21003;-48
2021/12/29 05:15:41;;;;;;;78.45;40.58;;;;;;;-4.26;66.89;93679.02;1712251;83;21222;-53
2021/12/29 05:18:09;;;;;;;86.30;40.33;;;;;;;-4.22;66.36;93682.47;1718989;82;20955;-53
2021/12/29 05:20:36;;;;;;;120.05;59.80;;;;;;;-4.31;66.36;93686.08;1698093;83;21101;-53
2021/12/29 05:23:02;;;;;;;114.10;58.63;;;;;;;-4.46;66.44;93681.25;1694729;82;21018;-53
2021/12/29 05:25:30;;;;;;;120.55;57.90;;;;;;;-4.53;66.63;93673.75;1708131;82;21536;-53
2021/12/29 05:27:57;;;;;;;127.75;62.20;;;;;;;-4.56;66.85;93682.55;1710920;82;21167;-49
2021/12/29 05:30:24;;;;;;;109.42;54.90;;;;;;;-4.56;67.21;93676.63;1711729;83;21221;-48
2021/12/29 05:32:50;;;;;;;103.67;54.95;;;;;;;-4.45;66.94;93682.03;1713239;82;20999;-48
2021/12/29 05:35:17;;;;;;;114.03;58.55;;;;;;;-4.44;66.78;93679.54;1712473;82;21109;-48
2021/12/29 05:37:44;;;;;;;127.25;63.38;;;;;;;-4.48;66.79;93688.13;1717233;82;20974;-48
2021/12/29 05:40:14;;;;;;;117.45;61.00;;;;;;;-4.46;66.94;93685.27;1713711;83;21898;-47
2021/12/29 05:42:43;;;;;;;116.25;60.45;;;;;;;-4.40;67.06;93681.66;1711938;83;21054;-48
2021/12/29 05:45:12;;;;;;;117.05;58.08;;;;;;;-4.23;66.86;93688.98;1713316;82;21047;-48
2021/12/29 05:47:39;;;;;;;113.45;59.00;;;;;;;-4.12;67.14;93686.52;1710652;82;20975;-49
2021/12/29 05:50:11;;;;;;;135.45;62.03;;;;;;;-3.98;66.85;93685.77;1708605;83;21014;-48
2021/12/29 05:52:37;;;;;;;148.68;67.00;;;;;;;-3.98;66.25;93676.38;1695043;83;21202;-49
2021/12/29 05:55:07;;;;;;;119.93;60.23;;;;;;;-4.04;66.23;93684.63;1716940;82;20986;-49
2021/12/29 05:57:35;;;;;;;138.47;65.67;;;;;;;-4.06;66.18;93681.55;1714247;82;21179;-49
2021/12/29 06:00:06;;;;;;;142.93;66.00;;;;;;;-4.11;66.06;93687.27;1699245;83;21015;-49
2021/12/29 06:02:34;;;;;;;150.75;74.55;;;;;;;-4.21;66.30;93688.03;1719283;82;21006;-49
2021/12/29 06:05:06;;;;;;;127.65;67.17;;;;;;;-4.28;66.18;93686.09;1713438;82;21155;-49
2021/12/29 06:07:35;;;;;;;;;;;;;;;-4.46;66.33;93685.86;1717637;82;21059;-49
2021/12/29 06:10:05;;;;;;;154.70;75.52;;;;;;;-4.63;66.90;93681.20;1709956;83;20169;-49
2021/12/29 06:12:35;;;;;;;177.25;86.67;;;;;;;-4.74;67.33;93681.72;1693254;83;21014;-49
2021/12/29 06:15:05;;;;;;;186.18;88.05;;;;;;;-4.79;67.69;93685.52;1717046;82;20983;-49
2021/12/29 06:17:31;;;;;;;153.62;74.42;;;;;;;-4.85;67.92;93686.25;1698303;83;22039;-48
2021/12/29 06:19:58;;;;;;;157.40;84.07;;;;;;;-4.85;68.42;93687.03;1713781;83;20971;-49
2021/12/29 06:22:27;;;;;;;157.35;76.75;;;;;;;-4.78;68.33;93682.28;1714058;82;21038;-49
2021/12/29 06:24:54;;;;;;;168.62;81.15;;;;;;;-4.72;68.33;93690.16;1710242;82;21007;-49
2021/12/29 06:27:21;;;;;;;155.65;76.15;;;;;;;-4.64;68.55;93681.00;1714414;82;21058;-49
2021/12/29 06:29:48;;;;;;;148.07;75.75;;;;;;;-4.44;68.60;93691.61;1705506;82;21222;-51
2021/12/29 06:32:15;;;;;;;207.85;106.97;;;;;;;-4.30;68.09;93681.68;1709958;82;20939;-50
2021/12/29 06:34:42;;;;;;;226.67;111.25;;;;;;;-4.23;68.00;93687.65;1721048;81;21053;-49
2021/12/29 06:37:09;;;;;;;221.00;109.60;;;;;;;-4.12;68.34;93685.73;1716654;82;21447;-48
2021/12/29 06:39:36;;;;;;;234.80;116.37;;;;;;;-3.86;68.17;93684.07;1669160;83;21137;-51
2021/12/29 06:42:06;;;;;;;213.30;110.10;;;;;;;-3.72;67.23;93689.46;1625701;86;21310;-49
2021/12/29 06:44:36;;;;;;;212.02;105.87;;;;;;;-3.76;66.81;93688.11;1635052;85;21213;-50
2021/12/29 06:47:03;;;;;;;229.40;106.83;;;;;;;-3.81;66.79;93681.78;1625305;87;21121;-49
2021/12/29 06:49:30;;;;;;;202.72;87.15;;;;;;;-3.80;66.81;93683.88;1650873;85;21517;-49
2021/12/29 06:51:58;;;;;;;155.20;72.80;;;;;;;-3.77;66.71;93684.45;1658850;84;21002;-50
2021/12/29 06:54:25;;;;;;;139.88;62.30;;;;;;;-3.77;66.65;93678.52;1707646;83;21154;-50
2021/12/29 06:56:52;;;;;;;109.95;54.15;;;;;;;-3.63;66.84;93681.78;1716825;81;21013;-53
2021/12/29 06:59:18;;;;;;;95.90;47.80;;;;;;;-3.54;66.47;93680.24;1706058;83;21049;-52
2021/12/29 07:01:45;;;;;;;80.60;41.75;;;;;;;-3.45;66.16;93676.61;1667389;83;21089;-50
2021/12/29 07:04:16;;;;;;;143.75;73.35;;;;;;;-3.46;65.78;93683.89;1711207;82;21027;-48
2021/12/29 07:06:46;;;;;;;148.97;78.75;;;;;;;-3.52;65.88;93682.55;1702942;81;22209;-49
2021/12/29 07:09:12;;;;;;;164.43;84.90;;;;;;;-3.59;65.88;93680.63;1685908;82;21081;-52
2021/12/29 07:11:39;;;;;;;196.93;102.17;;;;;;;-3.62;65.99;93681.41;1700580;82;20990;-52
2021/12/29 07:14:09;;;;;;;178.82;93.27;;;;;;;-3.57;66.32;93680.23;1678702;83;20969;-52
2021/12/29 07:16:44;;;;;;;206.20;107.45;;;;;;;-3.51;66.03;93678.91;1695574;82;21004;-50
2021/12/29 07:19:09;;;;;;;204.28;100.60;;;;;;;-3.48;66.12;93676.01;1697322;81;21310;-52
2021/12/29 07:21:36;;;;;;;188.05;98.42;;;;;;;-3.50;66.21;93672.38;1704954;82;21649;-49
2021/12/29 07:24:03;;;;;;;227.20;115.70;;;;;;;-3.44;66.27;93678.89;1654074;82;21037;-52
2021/12/29 07:26:30;;;;;;;171.77;90.40;;;;;;;-3.37;65.95;93679.47;1698690;82;21029;-53
2021/12/29 07:29:03;;;;;;;212.12;109.87;;;;;;;-3.40;65.86;93681.00;1702882;81;20914;-52
2021/12/29 07:31:31;;;;;;;197.70;96.55;;;;;;;-3.37;65.88;93681.59;1697792;82;21124;-50
2021/12/29 07:33:59;;;;;;;180.30;84.77;;;;;;;-3.26;65.89;93680.98;1692865;82;21102;-51
2021/12/29 07:36:26;;;;;;;213.35;104.97;;;;;;;-3.18;65.49;93686.56;1669238;84;21021;-56
2021/12/29 07:38:54;;;;;;;207.98;101.10;;;;;;;-3.19;65.34;93685.03;1654076;85;21022;-49
2021/12/29 07:41:21;;;;;;;210.02;106.30;;;;;;;-3.15;65.23;93684.44;1625984;85;21098;-56
2021/12/29 07:43:50;;;;;;;198.80;105.12;;;;;;;-3.04;65.43;93682.48;1673154;83;22465;-50
2021/12/29 07:46:17;;;;;;;182.93;93.42;;;;;;;-2.88;65.27;93683.43;1692518;82;21013;-52
2021/12/29 07:48:47;;;;;;;218.25;109.45;;;;;;;-2.76;64.86;93678.39;1693656;83;21007;-53
2021/12/29 07:51:16;;;;;;;215.87;106.58;;;;;;;-2.61;64.60;93675.08;1691121;82;21603;-51
2021/12/29 07:53:42;;;;;;;194.65;96.70;;;;;;;-2.48;64.52;93675.59;1691754;82;21033;-51
2021/12/29 07:56:12;;;;;;;158.10;82.17;;;;;;;-2.26;64.33;93681.66;1689563;82;21154;-55
2021/12/29 07:58:39;;;;;;;181.43;95.03;;;;;;;-2.07;63.75;93678.48;1677724;81;21001;-49
2021/12/29 08:01:08;;;;;;;221.22;104.87;;;;;;;-2.02;63.36;93678.84;1650633;84;21178;-52
2021/12/29 08:03:34;;;;;;;192.72;100.55;;;;;;;-1.99;63.41;93671.91;1666112;83;21025;-53
2021/12/29 08:06:01;;;;;;;109.17;57.65;;;;;;;-1.99;63.26;93675.36;1657115;84;21088;-48
2021/12/29 08:08:29;;;;;;;124.78;66.75;;;;;;;-1.97;63.18;93673.03;1658823;83;21287;-52
2021/12/29 08:10:58;;;;;;;117.35;61.90;;;;;;;-1.88;62.92;93676.07;1660667;84;21564;-56
2021/12/29 08:13:25;;;;;;;83.35;47.00;;;;;;;-1.86;62.56;93676.44;1661199;83;21045;-58
2021/12/29 08:15:52;;;;;;;55.17;31.57;;;;;;;-1.88;62.43;93673.38;1680679;82;21060;-55
2021/12/29 08:18:21;;;;;;;54.95;31.87;;;;;;;-1.88;62.53;93664.52;1665264;84;21378;-55
2021/12/29 08:20:48;;;;;;;99.80;55.88;;;;;;;-1.93;62.67;93671.08;1682073;82;21448;-56
2021/12/29 08:23:15;;;;;;;96.78;51.23;;;;;;;-1.91;62.67;93683.60;1663878;82;21055;-51
2021/12/29 08:25:45;;;;;;;110.83;60.88;;;;;;;-1.81;62.60;93679.30;1692230;83;21046;-50
2021/12/29 08:28:12;;;;;;;104.87;58.38;;;;;;;-1.69;62.30;93684.39;1699004;82;22237;-49
2021/12/29 08:30:39;;;;;;;132.20;69.75;;;;;;;-1.62;62.00;93687.06;1685564;82;21066;-52
2021/12/29 08:33:08;;;;;;;93.90;51.13;;;;;;;-1.60;61.74;93681.26;1660289;84;22806;-51
2021/12/29 08:35:37;;;;;;;121.10;65.30;;;;;;;-1.63;61.78;93689.58;1677036;82;21593;-55
2021/12/29 08:38:09;;;;;;;134.70;75.52;;;;;;;-1.67;61.86;93682.66;1697825;82;20977;-54
2021/12/29 08:40:37;;;;;;;;;;;;;;;-1.59;61.99;93678.17;1655813;84;21326;-53
2021/12/29 08:43:05;;;;;;;138.03;72.58;;;;;;;-1.40;61.74;93677.64;1620810;85;20179;-52
2021/12/29 08:45:34;;;;;;;154.23;87.85;;;;;;;-1.44;61.47;93672.87;1614644;85;21158;-51
2021/12/29 08:48:01;;;;;;;146.43;80.12;;;;;;;-1.50;61.70;93681.17;1601629;85;21010;-51
2021/12/29 08:50:29;;;;;;;133.67;74.12;;;;;;;-1.49;61.60;93685.41;1698318;82;21196;-50
2021/12/29 08:53:02;;;;;;;136.68;77.08;;;;;;;-1.47;61.74;93668.84;1669582;83;21019;-50
2021/12/29 08:55:31;;;;;;;135.55;74.37;;;;;;;-1.38;61.81;93667.80;1691379;82;20994;-53
2021/12/29 08:57:58;;;;;;;110.45;62.53;;;;;;;-1.34;61.53;93664.50;1691260;81;21816;-50
2021/12/29 09:00:27;;;;;;;113.28;61.25;;;;;;;-1.25;61.53;93659.41;1678213;82;22451;-51
2021/12/29 09:02:55;;;;;;;139.07;74.42;;;;;;;-1.22;61.23;93658.03;1682954;82;21053;-53
2021/12/29 09:05:22;;;;;;;141.73;74.03;;;;;;;-1.23;61.36;93657.07;1699125;82;21053;-55
2021/12/29 09:07:50;;;;;;;141.50;75.03;;;;;;;-1.11;61.40;93652.54;1698200;82;21021;-51
2021/12/29 09:10:21;;;;;;;109.95;58.28;;;;;;;-1.04;61.15;93659.20;1701427;82;21154;-53
2021/12/29 09:12:49;;;;;;;113.03;60.12;;;;;;;-1.00;60.90;93651.27;1696301;82;21056;-55
2021/12/29 09:15:20;;;;;;;85.03;48.20;;;;;;;-1.05;60.94;93650.36;1693879;82;21525;-55
2021/12/29 09:17:49;;;;;;;100.40;56.47;;;;;;;-0.92;60.98;93639.82;1694651;82;21261;-51
2021/12/29 09:20:30;;;;;;;116.57;66.90;;;;;;;-0.71;60.91;93649.81;1703222;81;21053;-50
2021/12/29 09:23:05;;;;;;;75.97;43.05;;;;;;;-0.49;60.58;93638.95;1681837;82;21842;-54
2021/12/29 09:25:32;;;;;;;68.02;36.75;;;;;;;-0.26;60.16;93638.30;1707608;81;21705;-56
2021/12/29 09:27:59;;;;;;;58.60;34.80;;;;;;;-0.08;59.40;93640.94;1678340;83;20970;-59
2021/12/29 09:30:29;;;;;;;59.95;33.25;;;;;;;0.03;59.08;93640.96;1679132;82;20990;-55
2021/12/29 09:32:56;;;;;;;57.80;34.80;;;;;;;0.07;58.90;93637.62;1702076;82;21082;-54
2021/12/29 09:35:24;;;;;;;81.70;42.70;;;;;;;0.10;58.81;93634.70;1691985;82;22651;-54
2021/12/29 09:37:55;;;;;;;115.82;65.72;;;;;;;0.19;58.68;93635.72;1632501;84;21115;-54
2021/12/29 09:40:23;;;;;;;117.75;63.80;;;;;;;0.31;58.35;93635.16;1606249;86;22349;-54
2021/12/29 09:42:51;;;;;;;118.35;69.00;;;;;;;0.41;57.96;93624.76;1626087;85;21531;-53
2021/12/29 09:45:22;;;;;;;120.08;69.55;;;;;;;0.60;57.84;93622.72;1703034;81;21161;-56
2021/12/29 09:47:57;;;;;;;104.40;60.70;;;;;;;0.78;57.74;93621.84;1681985;82;21235;-54
2021/12/29 09:50:28;;;;;;;99.05;57.10;;;;;;;1.03;57.42;93630.31;1690290;82;22142;-59
2021/12/29 09:53:08;;;;;;;88.27;50.80;;;;;;;1.14;56.86;93620.64;1713086;81;21009;-51
2021/12/29 09:55:44;;;;;;;96.02;55.52;;;;;;;1.15;56.88;93629.69;1710262;82;21056;-52
2021/12/29 09:58:13;;;;;;;102.35;60.85;;;;;;;1.11;56.98;93627.64;1702385;81;21072;-55
2021/12/29 10:00:56;;;;;;;120.08;69.00;;;;;;;1.18;57.28;93618.02;1672226;82;22158;-51
2021/12/29 10:03:25;;;;;;;108.87;59.45;;;;;;;1.19;57.43;93615.52;1692559;82;21081;-53
2021/12/29 10:05:57;;;;;;;111.42;67.60;;;;;;;1.33;57.47;93619.30;1688137;82;21047;-55
2021/12/29 10:08:28;;;;;;;115.22;67.75;;;;;;;1.40;57.57;93612.41;1691553;82;21069;-54
2021/12/29 10:11:01;;;;;;;102.20;60.00;;;;;;;1.54;56.99;93618.13;1690858;82;21119;-53
2021/12/29 10:13:33;;;;;;;97.65;55.50;;;;;;;1.56;56.97;93617.12;1690921;83;21074;-49
2021/12/29 10:16:04;;;;;;;110.40;63.83;;;;;;;1.48;56.97;93619.20;1695695;83;20982;-50
2021/12/29 10:18:37;;;;;;;114.80;64.42;;;;;;;1.40;57.17;93627.30;1674898;83;21075;-52
2021/12/29 10:21:07;;;;;;;127.58;73.25;;;;;;;1.41;57.14;93628.83;1694453;81;21072;-52
2021/12/29 10:23:45;;;;;;;140.65;78.97;;;;;;;1.40;57.12;93627.30;1705999;82;22227;-51
2021/12/29 10:26:20;;;;;;;145.38;86.97;;;;;;;1.35;57.39;93623.70;1687611;82;22001;-54
2021/12/29 10:28:52;;;;;;;153.82;96.80;;;;;;;1.37;57.07;93625.44;1715435;82;21420;-53
2021/12/29 10:31:27;;;;;;;;;;;;;;;1.39;57.28;93624.42;1696915;82;21090;-54
2021/12/29 10:34:01;;;;;;;137.57;79.75;;;;;;;1.37;56.79;93617.88;1703700;82;20244;-55
2021/12/29 10:36:43;;;;;;;140.80;82.88;;;;;;;1.26;56.91;93627.56;1694817;82;21539;-50
2021/12/29 10:39:25;;;;;;;154.53;84.03;;;;;;;1.19;57.39;93623.64;1699708;82;21164;-55
2021/12/29 10:41:59;;;;;;;182.97;102.70;;;;;;;1.17;57.50;93615.14;1710990;81;21130;-52
2021/12/29 10:44:37;;;;;;;178.93;101.38;;;;;;;1.08;57.94;93623.63;1686397;82;21029;-51
2021/12/29 10:47:29;;;;;;;164.82;95.17;;;;;;;1.06;58.25;93614.59;1672529;83;21055;-53
2021/12/29 10:50:15;;;;;;;182.72;98.37;;;;;;;1.05;58.66;93611.70;1684660;82;21276;-52
2021/12/29 10:52:47;;;;;;;163.18;96.20;;;;;;;1.07;58.48;93613.41;1676581;81;21169;-50
2021/12/29 10:55:32;;;;;;;169.62;101.97;;;;;;;1.08;58.50;93611.45;1671303;83;21145;-52
2021/12/29 10:58:07;;;;;;;168.93;100.42;;;;;;;1.07;59.00;93603.93;1693925;82;21042;-50
2021/12/29 11:00:36;;;;;;;160.15;89.92;;;;;;;1.31;58.78;93612.18;1694257;81;21642;-51
2021/12/29 11:03:19;;;;;;;156.00;93.87;;;;;;;1.51;58.25;93604.06;1658325;83;21078;-52
2021/12/29 11:05:50;;;;;;;166.73;93.15;;;;;;;1.56;57.92;93604.35;1695088;82;21131;-50
2021/12/29 11:08:24;;;;;;;155.52;91.02;;;;;;;1.55;58.00;93607.47;1698367;82;28777;-51
2021/12/29 11:10:55;;;;;;;178.30;102.23;;;;;;;1.55;57.83;93607.47;1655537;84;21066;-53
2021/12/29 11:13:28;;;;;;;173.15;101.75;;;;;;;1.43;57.77;93603.44;1682368;83;21087;-56
2021/12/29 11:15:56;;;;;;;158.52;89.28;;;;;;;1.41;58.32;93596.90;1683294;83;21028;-52
2021/12/29 11:18:25;;;;;;;178.93;102.75;;;;;;;1.55;58.47;93594.70;1696370;83;21170;-52
2021/12/29 11:20:54;;;;;;;143.28;83.15;;;;;;;1.71;58.19;93583.14;1649484;86;21172;-50
2021/12/29 11:23:23;;;;;;;152.97;91.22;;;;;;;1.82;57.90;93587.15;1627760;85;21566;-54
2021/12/29 11:25:51;;;;;;;201.60;117.60;;;;;;;1.93;57.82;93589.05;1638143;84;21188;-51
2021/12/29 11:28:24;;;;;;;222.52;124.07;;;;;;;2.04;57.90;93588.98;1649378;85;21046;-51
2021/12/29 11:30:55;;;;;;;226.32;129.25;;;;;;;2.34;57.50;93577.08;1629448;85;22170;-50
2021/12/29 11:33:31;;;;;;;191.12;116.10;;;;;;;2.81;56.79;93576.88;1631957;86;21027;-57
2021/12/29 11:35:58;;;;;;;190.88;110.92;;;;;;;3.36;56.19;93577.95;1620149;86;21032;-58
2021/12/29 11:38:26;;;;;;;203.20;122.82;;;;;;;3.84;55.28;93572.50;1648228;86;21094;-52